Detall de PIREP

Printer-friendly versionPDF version

[2013/09/28 21:42:00]
Flight IATA:CT1001
Pilot Number:026
Company ICAO:CAT
Aircraft Type:F28/A
PAX:84
Departing Airport: LICD
Destination Airport: LIEA
Alternate Airport:LIEO
Online: VATSIM
Route:VERAK UM740 MEGAN UM732 SODIO
Flight Level:F260
No Slew and time accel
No pause
Crash detect
Detect pilot in Cockpit between each 30 and 45 minutes
21:42 Zero fuel Weight: 62283 Lbs, Fuel Weight: 9424 Lbs
21:42 VATSIM:LICD 281850Z 14012KT CAVOK 26/24 Q1013
21:42 VATSIM:LIEA 282120Z 19007KT 140V210 9999 SCT008 BKN014 23/22 Q1011
21:42 VOICE CATALONIAN / MEDITERRANEAN ODYSSEY LEG5
21:55 Parking Brakes off
22:01 Take-off
22:01 Take off Weight: 71241 Lbs
22:01 Wind: 139º @ 012 Knots Heading: 083º
22:01 POS N35º 29´ 52´´ E012º 37´ 31´´
22:01 Gear Up: 158 Knots
22:01 Flaps:2 at 158 Knots
22:02 Flaps:1 at 192 Knots
22:02 Flaps:0 at 190 Knots
22:16 Wind:141º@002 Knots Heading: 335º Ground Speed: 357 Knots Altitude 20803 ft
22:31 Wind:147º@011 Knots Heading: 307º Ground Speed: 430 Knots Altitude 23881 ft
22:46 Wind:089º@016 Knots Heading: 310º Ground Speed: 432 Knots Altitude 23832 ft
23:01 Wind:190º@032 Knots Heading: 331º Ground Speed: 378 Knots Altitude 13487 ft
23:12 Flaps:1 at 117 Knots
23:14 Gear Down: 232 Knots
23:14 Flaps:2 at 232 Knots
23:14 Gear Up: 212 Knots
23:14 Gear Down: 207 Knots
23:14 Flaps:3 at 202 Knots
23:15 Flaps:4 at 137 Knots
23:16 Wind:198º@008 Knots Heading: 203º Ground Speed: 129 Knots Altitude 213 ft
23:16 TouchDown:Rate -133 ft/min Speed: 122 Knots
23:16 VATSIM:LIEA 282250Z 20008KT 170V230 9000 4000S BKN006 23/22 Q1010
23:16 Land
23:16 Wind:193º@008 Knots
23:16 Heading: 208º
23:16 Flight Duration: 01:15
23:16 Landing Weight: 65514 Lbs
23:16 POS N40º 37´ 51´´ E008º 17´ 25´´
23:19 Parking brakes on
23:19 Block to Block Duration: 01:24
23:19 Final Fuel: 3115 Lbls
23:19 Spent Fuel: 6309 Lbls
23:19 Flight Length: 441 NM
23:19 TOD Land Length: 441 NM

Exportar CSV

Powered by Drupal - Modified by Danger4k